Time;durP1;ratioP1;P1;durP2;ratioP2;P2;SDS_P1;SDS_P2;PMS_P1;PMS_P2;Temp;Humidity;BMP_temperature;BMP_pressure;BME280_temperature;BME280_humidity;BME280_pressure;Samples;Min_cycle;Max_cycle;Signal;HPM_P1;HPM_P2
2023/04/29 00:02:52;;;;;;;9.63;8.70;;;23.50;78.40;;;;;;6252140;28;94173;-68
2023/04/29 00:05:55;;;;;;;9.40;8.50;;;23.50;78.30;;;;;;6252203;28;94234;-68
2023/04/29 00:08:57;;;;;;;9.40;8.50;;;23.50;78.30;;;;;;6251106;28;93235;-68
2023/04/29 00:11:59;;;;;;;9.35;8.35;;;23.50;78.30;;;;;;6251083;28;94209;-68
2023/04/29 00:15:03;;;;;;;9.63;8.60;;;23.50;78.30;;;;;;6252140;28;94052;-68
2023/04/29 00:18:05;;;;;;;9.15;8.25;;;23.40;78.30;;;;;;6249334;28;93908;-67
2023/04/29 00:21:08;;;;;;;8.77;7.97;;;23.40;78.20;;;;;;6254318;28;94146;-68
2023/04/29 00:24:10;;;;;;;8.38;7.57;;;23.40;78.10;;;;;;6249036;28;92939;-68
2023/04/29 00:27:12;;;;;;;9.02;8.13;;;23.40;78.00;;;;;;6249991;28;94560;-68
2023/04/29 00:30:15;;;;;;;8.88;7.97;;;23.40;77.90;;;;;;6241551;28;94129;-67
2023/04/29 00:33:16;;;;;;;8.20;7.40;;;23.40;77.90;;;;;;6248775;28;94081;-67
2023/04/29 00:36:20;;;;;;;8.32;7.53;;;23.40;77.90;;;;;;6245732;28;94954;-67
2023/04/29 00:39:22;;;;;;;8.18;7.47;;;23.40;77.90;;;;;;6251345;28;94087;-68
2023/04/29 00:42:26;;;;;;;8.20;7.40;;;23.40;77.90;;;;;;6247843;28;94237;-68
2023/04/29 00:45:28;;;;;;;8.25;7.45;;;23.40;77.90;;;;;;6240269;28;94217;-68
2023/04/29 00:48:30;;;;;;;8.23;7.28;;;23.40;77.80;;;;;;6249074;28;94362;-68
2023/04/29 00:51:35;;;;;;;8.25;7.40;;;23.30;77.70;;;;;;6247104;28;94087;-67
2023/04/29 00:54:37;;;;;;;7.90;7.20;;;23.40;77.90;;;;;;6251086;28;94073;-69
2023/04/29 00:57:40;;;;;;;8.60;7.70;;;23.40;77.90;;;;;;6250211;28;93351;-67
2023/04/29 01:00:42;;;;;;;8.30;7.50;;;23.30;77.70;;;;;;6251478;28;94212;-67
2023/04/29 01:03:45;;;;;;;7.72;7.00;;;23.30;77.60;;;;;;6246510;28;94117;-68
2023/04/29 01:07:01;;;;;;;7.80;7.10;;;23.40;77.80;;;;;;6251070;28;93871;-67
2023/04/29 01:10:08;;;;;;;8.20;7.40;;;23.30;77.70;;;;;;6249895;28;94007;-67
2023/04/29 01:13:17;;;;;;;8.35;7.55;;;23.30;77.70;;;;;;6244292;28;94120;-67
2023/04/29 01:16:25;;;;;;;7.57;6.82;;;23.30;77.60;;;;;;6241717;27;93560;-68
2023/04/29 01:19:40;;;;;;;7.88;7.07;;;23.30;77.60;;;;;;6239131;28;94282;-68
2023/04/29 01:22:44;;;;;;;7.85;7.15;;;23.30;77.60;;;;;;6242688;28;94362;-69
2023/04/29 01:25:47;;;;;;;7.13;6.43;;;23.30;77.50;;;;;;6247539;28;94206;-68
2023/04/29 01:28:58;;;;;;;7.45;6.75;;;23.20;77.40;;;;;;6251308;28;93513;-68
2023/04/29 01:32:07;;;;;;;7.40;6.70;;;23.30;77.40;;;;;;6247973;28;94231;-68
2023/04/29 01:35:17;;;;;;;7.40;6.68;;;23.30;77.20;;;;;;6249278;28;94275;-68
2023/04/29 01:38:34;;;;;;;7.35;6.65;;;23.30;77.20;;;;;;6239975;28;95062;-67
2023/04/29 01:41:44;;;;;;;7.22;6.55;;;23.30;77.30;;;;;;6245238;28;93971;-69
2023/04/29 01:44:49;;;;;;;7.20;6.60;;;23.30;77.40;;;;;;6247772;27;93305;-69
2023/04/29 01:47:54;;;;;;;7.60;6.88;;;23.20;77.40;;;;;;6244707;28;94255;-69
2023/04/29 01:50:56;;;;;;;7.07;6.47;;;23.20;77.30;;;;;;6254282;28;94447;-69
2023/04/29 01:53:58;;;;;;;7.35;6.63;;;23.20;77.30;;;;;;6253839;28;94257;-68
2023/04/29 01:57:02;;;;;;;7.18;6.57;;;23.20;77.30;;;;;;6254136;27;94335;-68
2023/04/29 02:00:04;;;;;;;7.40;6.53;;;23.20;77.40;;;;;;6254117;28;93412;-68
2023/04/29 02:03:06;;;;;;;7.40;6.30;;;23.20;77.40;;;;;;6252916;28;94372;-68
2023/04/29 02:06:08;;;;;;;6.68;6.07;;;23.20;77.30;;;;;;6252705;28;94120;-67
2023/04/29 02:09:11;;;;;;;6.97;6.28;;;23.20;77.20;;;;;;6250496;28;95261;-67
2023/04/29 02:12:14;;;;;;;7.32;6.63;;;23.20;77.30;;;;;;6254298;28;94534;-68
2023/04/29 02:15:16;;;;;;;6.90;6.20;;;23.20;77.40;;;;;;6254475;28;94097;-68
2023/04/29 02:18:18;;;;;;;6.80;6.10;;;23.20;77.40;;;;;;6253787;28;94303;-68
2023/04/29 02:21:20;;;;;;;6.95;6.22;;;23.20;77.40;;;;;;6251688;28;94519;-69
2023/04/29 02:24:22;;;;;;;6.78;6.18;;;23.20;77.40;;;;;;6253521;28;94036;-69
2023/04/29 02:27:26;;;;;;;6.90;6.20;;;23.20;77.50;;;;;;6253856;28;94257;-69
2023/04/29 02:30:29;;;;;;;6.40;5.82;;;23.10;77.40;;;;;;6255157;28;93278;-68
2023/04/29 02:33:31;;;;;;;6.75;6.05;;;23.10;77.40;;;;;;6253393;28;92860;-67
2023/04/29 02:36:33;;;;;;;6.47;5.82;;;23.10;77.50;;;;;;6244432;28;94326;-68
2023/04/29 02:39:35;;;;;;;6.53;5.93;;;23.10;77.30;;;;;;6249697;28;95381;-68
2023/04/29 02:42:39;;;;;;;6.28;5.32;;;23.10;77.20;;;;;;6248452;28;94057;-68
2023/04/29 02:45:41;;;;;;;5.93;5.32;;;23.10;77.20;;;;;;6244915;28;94157;-68
2023/04/29 02:48:43;;;;;;;5.95;5.38;;;23.10;77.20;;;;;;6242693;28;94463;-68
2023/04/29 02:51:45;;;;;;;5.88;5.32;;;23.10;77.30;;;;;;6248875;28;94071;-69
2023/04/29 02:54:47;;;;;;;5.90;5.38;;;23.10;77.30;;;;;;6251013;28;93960;-69
2023/04/29 02:57:50;;;;;;;6.10;5.50;;;23.10;77.40;;;;;;6254396;27;94169;-68
2023/04/29 03:00:52;;;;;;;6.85;5.15;;;23.10;77.40;;;;;;6252584;28;93439;-67
2023/04/29 03:03:54;;;;;;;6.45;5.78;;;23.10;77.40;;;;;;6252458;28;94203;-68
2023/04/29 03:06:56;;;;;;;5.82;5.20;;;23.10;77.30;;;;;;6252436;28;94413;-68
2023/04/29 03:09:58;;;;;;;5.70;5.20;;;23.10;77.40;;;;;;6251978;28;95039;-68
2023/04/29 03:13:02;;;;;;;5.78;5.28;;;23.10;77.30;;;;;;6252473;28;94434;-68
2023/04/29 03:16:05;;;;;;;5.70;5.18;;;23.10;77.20;;;;;;6251809;28;94398;-68
2023/04/29 03:19:07;;;;;;;6.22;5.63;;;23.10;77.20;;;;;;6245178;28;94525;-68
2023/04/29 03:22:10;;;;;;;6.50;5.90;;;23.10;77.40;;;;;;6248414;28;94318;-68
2023/04/29 03:25:12;;;;;;;6.38;5.78;;;23.10;77.40;;;;;;6251956;28;94786;-68
2023/04/29 03:28:16;;;;;;;5.80;5.30;;;23.10;77.40;;;;;;6250550;28;94107;-68
2023/04/29 03:31:19;;;;;;;5.90;4.55;;;23.10;77.40;;;;;;6253766;28;93509;-67
2023/04/29 03:34:21;;;;;;;5.68;4.55;;;23.00;77.00;;;;;;6252357;28;94178;-68
2023/04/29 03:37:24;;;;;;;5.82;5.22;;;23.10;76.80;;;;;;6249078;28;94080;-67
2023/04/29 03:40:26;;;;;;;4.80;4.30;;;23.00;76.90;;;;;;6251357;28;94133;-68
2023/04/29 03:43:29;;;;;;;5.22;4.72;;;23.00;76.90;;;;;;6249490;28;94131;-68
2023/04/29 03:46:31;;;;;;;5.15;4.65;;;23.00;76.90;;;;;;6251449;28;94627;-68
2023/04/29 03:49:33;;;;;;;5.22;4.30;;;23.00;76.90;;;;;;6250778;28;93247;-68
2023/04/29 03:52:36;;;;;;;4.88;4.47;;;23.00;77.00;;;;;;6241555;28;94125;-68
2023/04/29 03:55:38;;;;;;;5.45;4.95;;;23.00;77.00;;;;;;6251865;28;94104;-68
2023/04/29 03:58:41;;;;;;;5.82;4.70;;;23.10;77.10;;;;;;6244035;28;95939;-68
2023/04/29 04:01:43;;;;;;;5.20;4.70;;;23.00;77.00;;;;;;6247813;28;93391;-67
2023/04/29 04:04:45;;;;;;;4.60;4.20;;;23.10;77.00;;;;;;6251616;28;94199;-67
2023/04/29 04:07:47;;;;;;;4.85;4.32;;;23.10;77.00;;;;;;6251796;28;94271;-67
2023/04/29 04:10:49;;;;;;;5.18;4.68;;;23.10;76.90;;;;;;6251822;28;95155;-67
2023/04/29 04:13:53;;;;;;;4.90;4.40;;;23.10;76.90;;;;;;6249649;28;94431;-67
2023/04/29 04:16:55;;;;;;;4.40;4.00;;;23.10;76.80;;;;;;6251997;28;94176;-67
2023/04/29 04:19:57;;;;;;;5.20;4.22;;;23.10;76.70;;;;;;6247939;28;94055;-68
2023/04/29 04:22:59;;;;;;;4.65;4.18;;;23.10;76.70;;;;;;6250581;28;93011;-67
2023/04/29 04:26:01;;;;;;;4.00;3.60;;;23.10;76.70;;;;;;6252141;28;94452;-67
2023/04/29 04:29:04;;;;;;;4.13;3.72;;;23.10;76.60;;;;;;6249535;28;94425;-67
2023/04/29 04:32:07;;;;;;;4.50;4.10;;;23.10;76.60;;;;;;6250711;28;92165;-67
2023/04/29 04:35:09;;;;;;;4.40;4.00;;;23.10;76.50;;;;;;6242553;28;94454;-67
2023/04/29 04:38:11;;;;;;;4.20;3.80;;;23.10;76.50;;;;;;6243574;28;93977;-68
2023/04/29 04:41:13;;;;;;;4.20;3.83;;;23.10;77.40;;;;;;6247790;28;95089;-68
2023/04/29 04:44:16;;;;;;;4.93;3.67;;;23.20;76.60;;;;;;6250726;28;94043;-67
2023/04/29 04:47:19;;;;;;;4.18;3.53;;;23.10;76.40;;;;;;6251082;28;94503;-67
2023/04/29 04:50:21;;;;;;;4.30;3.90;;;23.10;76.40;;;;;;6244453;28;94149;-67
2023/04/29 04:53:23;;;;;;;4.10;3.70;;;23.10;76.60;;;;;;6251232;28;94463;-67
2023/04/29 04:56:25;;;;;;;4.30;3.63;;;23.10;76.40;;;;;;6250640;28;94321;-68
2023/04/29 04:59:29;;;;;;;4.57;3.72;;;23.10;77.40;;;;;;6252938;28;94330;-67
2023/04/29 05:02:31;;;;;;;3.65;3.35;;;23.10;76.60;;;;;;6251411;28;92287;-67
2023/04/29 05:05:33;;;;;;;4.05;3.65;;;23.10;76.60;;;;;;6249920;28;94051;-67
2023/04/29 05:08:35;;;;;;;3.83;3.40;;;23.10;76.60;;;;;;6249754;28;94065;-67
2023/04/29 05:11:37;;;;;;;4.60;3.40;;;23.10;76.60;;;;;;6250452;28;95208;-67
2023/04/29 05:14:41;;;;;;;4.10;3.70;;;23.10;76.60;;;;;;6250727;28;94685;-67
2023/04/29 05:17:43;;;;;;;4.10;3.70;;;23.10;76.60;;;;;;6249947;27;94218;-66
2023/04/29 05:20:45;;;;;;;4.95;3.60;;;23.00;76.90;;;;;;6252762;27;94111;-67
2023/04/29 05:23:47;;;;;;;5.45;3.90;;;23.00;77.20;;;;;;6254424;28;93070;-66
2023/04/29 05:26:50;;;;;;;5.55;3.78;;;23.10;77.70;;;;;;6250716;27;94223;-67
2023/04/29 05:29:54;;;;;;;5.57;3.80;;;23.10;78.20;;;;;;6252832;27;94614;-66
2023/04/29 05:32:56;;;;;;;6.13;3.70;;;23.10;78.80;;;;;;6253336;28;93408;-72
2023/04/29 05:35:58;;;;;;;3.92;3.53;;;23.10;78.90;;;;;;6252816;28;94123;-64
2023/04/29 05:39:00;;;;;;;6.70;3.90;;;23.10;79.90;;;;;;6252537;28;94615;-64
2023/04/29 05:42:02;;;;;;;5.28;4.10;;;23.10;80.40;;;;;;6247923;27;95028;-65
2023/04/29 05:45:06;;;;;;;4.63;3.65;;;23.10;80.00;;;;;;6253045;28;94160;-64
2023/04/29 05:48:08;;;;;;;4.32;3.90;;;23.10;79.20;;;;;;6254259;28;94268;-64
2023/04/29 05:51:10;;;;;;;5.50;3.80;;;23.10;78.90;;;;;;6245041;28;94117;-64
2023/04/29 05:54:13;;;;;;;4.47;4.07;;;23.10;78.80;;;;;;6253036;28;94480;-64
2023/04/29 05:57:15;;;;;;;4.40;4.00;;;23.10;78.80;;;;;;6255609;28;93925;-64
2023/04/29 06:00:19;;;;;;;4.13;3.72;;;23.20;79.00;;;;;;6255554;28;94147;-64
2023/04/29 06:03:21;;;;;;;6.03;4.10;;;23.10;78.90;;;;;;6254051;28;93382;-64
2023/04/29 06:06:23;;;;;;;4.15;3.60;;;23.10;79.20;;;;;;6254924;28;94202;-65
2023/04/29 06:09:25;;;;;;;4.93;4.13;;;23.20;79.20;;;;;;6251414;28;94433;-65
2023/04/29 06:12:27;;;;;;;5.28;4.45;;;23.20;79.20;;;;;;6244796;28;94997;-65
2023/04/29 06:15:31;;;;;;;5.57;4.20;;;23.10;79.10;;;;;;6254831;28;94146;-64
2023/04/29 06:18:33;;;;;;;5.43;4.47;;;23.20;79.30;;;;;;6254583;28;94166;-66
2023/04/29 06:21:35;;;;;;;5.45;4.40;;;23.20;79.40;;;;;;6247175;28;94030;-66
2023/04/29 06:24:37;;;;;;;6.00;4.30;;;23.20;79.80;;;;;;6250377;27;94633;-66
2023/04/29 06:27:38;;;;;;;4.68;4.20;;;23.20;79.70;;;;;;6251486;27;94021;-65
2023/04/29 06:30:42;;;;;;;5.20;4.30;;;23.30;79.70;;;;;;6254735;27;94102;-66
2023/04/29 06:33:45;;;;;;;5.50;4.25;;;23.30;79.60;;;;;;6250375;27;93378;-65
2023/04/29 06:36:47;;;;;;;5.25;4.40;;;23.30;79.60;;;;;;6246254;28;94458;-66
2023/04/29 06:39:49;;;;;;;5.28;4.43;;;23.30;79.50;;;;;;6255148;27;94254;-65
2023/04/29 06:42:52;;;;;;;5.93;4.47;;;23.30;79.50;;;;;;6249867;28;95248;-65
2023/04/29 06:45:55;;;;;;;4.93;4.43;;;23.30;79.60;;;;;;6252312;27;94745;-65
2023/04/29 06:48:57;;;;;;;6.13;4.90;;;23.30;79.60;;;;;;6254743;28;94031;-65
2023/04/29 06:52:00;;;;;;;6.13;4.40;;;23.30;79.80;;;;;;6243567;28;93947;-65
2023/04/29 06:55:03;;;;;;;7.10;5.50;;;23.30;79.60;;;;;;6254364;28;94294;-65
2023/04/29 06:58:05;;;;;;;14.68;9.07;;;23.40;79.80;;;;;;6253857;28;93978;-65
2023/04/29 07:01:09;;;;;;;20.15;10.93;;;23.40;80.00;;;;;;6252066;28;94358;-65
2023/04/29 07:04:11;;;;;;;28.08;14.43;;;23.40;79.70;;;;;;6254615;28;93322;-65
2023/04/29 07:07:13;;;;;;;22.45;13.48;;;23.30;79.40;;;;;;6250914;27;94090;-65
2023/04/29 07:10:15;;;;;;;28.38;15.57;;;23.40;79.50;;;;;;6250986;28;94487;-65
2023/04/29 07:13:17;;;;;;;28.52;15.63;;;23.40;79.40;;;;;;6251618;28;95060;-65
2023/04/29 07:16:21;;;;;;;31.77;15.25;;;23.40;79.40;;;;;;6252195;28;93873;-66
2023/04/29 07:19:23;;;;;;;33.63;17.95;;;23.30;79.80;;;;;;6252109;28;94325;-66
2023/04/29 07:22:25;;;;;;;36.60;19.27;;;23.30;79.70;;;;;;6253555;28;94014;-66
2023/04/29 07:25:28;;;;;;;37.92;19.92;;;23.40;80.00;;;;;;6246688;28;94269;-67
2023/04/29 07:28:30;;;;;;;32.63;19.05;;;23.40;80.00;;;;;;6252916;28;94410;-67
2023/04/29 07:31:33;;;;;;;34.80;19.75;;;23.40;80.00;;;;;;6251824;27;94443;-66
2023/04/29 07:34:35;;;;;;;34.25;18.23;;;23.40;79.90;;;;;;6253637;28;93444;-67
2023/04/29 07:37:37;;;;;;;29.80;16.73;;;23.40;79.80;;;;;;6247547;28;94527;-66
2023/04/29 07:40:39;;;;;;;32.85;17.20;;;23.40;79.80;;;;;;6250351;27;94234;-66
2023/04/29 07:43:41;;;;;;;30.65;16.60;;;23.40;79.80;;;;;;6249810;27;95242;-67
2023/04/29 07:46:45;;;;;;;26.45;14.48;;;23.40;79.70;;;;;;6253125;27;94055;-67
2023/04/29 07:49:47;;;;;;;25.08;14.65;;;23.40;79.60;;;;;;6245460;27;94205;-67
2023/04/29 07:52:49;;;;;;;26.15;14.18;;;23.40;79.60;;;;;;6240430;28;94087;-66
2023/04/29 07:55:51;;;;;;;23.83;13.48;;;23.50;79.60;;;;;;6245173;28;94087;-67
2023/04/29 07:58:53;;;;;;;22.05;13.23;;;23.40;79.40;;;;;;6237320;28;94388;-67
2023/04/29 08:01:56;;;;;;;21.42;12.68;;;23.50;79.40;;;;;;6249410;27;94115;-67
2023/04/29 08:04:59;;;;;;;21.80;12.98;;;23.50;79.40;;;;;;6246645;27;93428;-67
2023/04/29 08:08:01;;;;;;;23.83;12.73;;;23.50;79.40;;;;;;6244623;28;94117;-67
2023/04/29 08:11:03;;;;;;;20.92;12.65;;;23.50;79.40;;;;;;6246684;27;94019;-67
2023/04/29 08:14:05;;;;;;;20.85;12.50;;;23.60;79.40;;;;;;6249817;27;95060;-67
2023/04/29 08:17:09;;;;;;;19.20;11.65;;;23.60;79.40;;;;;;6252243;28;94046;-66
2023/04/29 08:20:12;;;;;;;21.63;12.13;;;23.60;79.40;;;;;;6251872;28;94145;-67
2023/04/29 08:23:14;;;;;;;18.90;12.07;;;23.60;79.30;;;;;;6244087;28;93053;-67
2023/04/29 08:26:16;;;;;;;18.83;11.32;;;23.60;79.30;;;;;;6252416;28;94077;-67
2023/04/29 08:29:18;;;;;;;18.77;11.05;;;23.60;79.20;;;;;;6251473;28;94214;-67
2023/04/29 08:32:22;;;;;;;17.60;10.90;;;23.60;79.20;;;;;;6244378;27;94065;-67
2023/04/29 08:35:24;;;;;;;17.95;11.15;;;23.60;79.20;;;;;;6251907;28;93369;-67
2023/04/29 08:38:26;;;;;;;16.30;10.40;;;23.60;79.10;;;;;;6250623;28;94173;-67
2023/04/29 08:41:28;;;;;;;19.65;11.55;;;23.60;79.10;;;;;;6248860;27;94371;-67
2023/04/29 08:44:32;;;;;;;18.67;10.90;;;23.60;79.10;;;;;;6248941;27;95873;-67
2023/04/29 08:47:37;;;;;;;17.63;10.82;;;23.60;79.10;;;;;;6251235;28;94168;-67
2023/04/29 08:50:40;;;;;;;16.67;10.45;;;23.60;79.10;;;;;;6245172;27;94186;-67
2023/04/29 08:53:42;;;;;;;16.92;10.52;;;23.60;80.00;;;;;;6239844;27;94183;-67
2023/04/29 08:56:46;;;;;;;16.35;10.25;;;23.60;79.10;;;;;;6250184;28;94271;-67
2023/04/29 08:59:48;;;;;;;15.15;10.05;;;23.60;79.10;;;;;;6247548;28;94356;-66
2023/04/29 09:02:54;;;;;;;24.67;10.70;;;23.60;79.30;;;;;;6250390;28;94234;-66
2023/04/29 09:05:59;;;;;;;18.25;10.20;;;23.60;80.00;;;;;;6254876;28;93627;-66
2023/04/29 09:09:02;;;;;;;22.08;10.98;;;23.60;80.40;;;;;;6254792;28;94122;-66
2023/04/29 09:12:05;;;;;;;18.30;10.52;;;23.60;80.60;;;;;;6254843;28;94383;-66
2023/04/29 09:15:08;;;;;;;21.10;10.38;;;23.70;80.80;;;;;;6252375;28;95108;-67
2023/04/29 09:18:33;;;;;;;22.08;10.70;;;23.60;81.00;;;;;;6249909;27;93694;-66
2023/04/29 09:21:35;;;;;;;21.38;10.05;;;23.70;81.30;;;;;;6251726;27;94089;-67
2023/04/29 09:24:38;;;;;;;21.52;10.65;;;23.70;80.90;;;;;;6255082;28;94389;-66
2023/04/29 09:27:41;;;;;;;19.10;9.15;;;23.70;80.80;;;;;;6239808;27;94166;-67
2023/04/29 09:30:46;;;;;;;18.65;9.52;;;23.70;80.60;;;;;;6245851;27;94222;-66
2023/04/29 09:33:54;;;;;;;19.63;9.02;;;23.70;80.70;;;;;;6246486;27;94133;-66
2023/04/29 09:36:57;;;;;;;15.55;9.30;;;23.70;80.50;;;;;;6250326;27;93265;-66
2023/04/29 09:40:00;;;;;;;16.73;8.88;;;23.70;80.60;;;;;;6247032;28;94279;-67
2023/04/29 09:43:02;;;;;;;13.98;8.90;;;23.70;80.50;;;;;;6244766;27;94173;-66
2023/04/29 09:46:04;;;;;;;12.82;8.20;;;23.70;80.30;;;;;;6247816;28;95025;-66
2023/04/29 09:49:24;;;;;;;14.90;8.73;;;23.70;80.10;;;;;;6249645;27;94774;-67
2023/04/29 09:52:40;;;;;;;16.10;9.27;;;23.70;80.10;;;;;;6244603;27;93964;-66
2023/04/29 09:56:00;;;;;;;12.63;8.73;;;23.70;80.10;;;;;;6252603;28;94110;-66
2023/04/29 09:59:08;;;;;;;16.40;9.07;;;23.70;80.30;;;;;;6245436;28;94109;-67
2023/04/29 10:02:15;;;;;;;14.32;9.07;;;23.70;80.30;;;;;;6245647;28;95149;-67
2023/04/29 10:05:19;;;;;;;16.13;8.50;;;23.70;80.20;;;;;;6249093;27;94117;-66
2023/04/29 10:08:21;;;;;;;12.63;8.00;;;23.70;80.20;;;;;;6245982;27;93376;-66
2023/04/29 10:11:23;;;;;;;13.63;8.18;;;23.70;80.20;;;;;;6247174;27;94179;-66
2023/04/29 10:14:28;;;;;;;13.00;7.97;;;23.70;80.10;;;;;;6250152;27;94083;-64
2023/04/29 10:17:41;;;;;;;12.35;7.60;;;23.70;80.10;;;;;;6246236;27;95058;-64
2023/04/29 10:20:47;;;;;;;11.85;7.65;;;23.70;80.10;;;;;;6250903;27;94124;-64
2023/04/29 10:23:50;;;;;;;14.32;8.13;;;23.70;80.10;;;;;;6245156;27;94312;-64
2023/04/29 10:26:53;;;;;;;14.05;7.93;;;23.70;81.60;;;;;;6233300;27;94427;-64
2023/04/29 10:29:56;;;;;;;12.80;7.35;;;23.70;81.10;;;;;;6243226;27;94121;-63
2023/04/29 10:33:00;;;;;;;13.13;8.13;;;23.80;81.00;;;;;;6244412;27;95485;-64
2023/04/29 10:36:05;;;;;;;19.23;7.97;;;23.80;80.70;;;;;;6248466;28;94594;-65
2023/04/29 10:39:17;;;;;;;21.60;8.68;;;23.80;81.30;;;;;;6241102;27;93403;-66
2023/04/29 10:42:42;;;;;;;14.05;7.20;;;23.80;87.70;;;;;;6250151;27;94141;-67
2023/04/29 10:45:45;;;;;;;18.45;8.00;;;23.80;83.90;;;;;;6246226;28;94048;-69
2023/04/29 10:48:47;;;;;;;16.45;7.40;;;23.80;82.70;;;;;;6240814;27;94986;-71
2023/04/29 10:51:51;;;;;;;15.75;7.40;;;23.80;82.30;;;;;;6245537;27;94169;-69
2023/04/29 10:55:02;;;;;;;11.65;7.00;;;23.80;82.20;;;;;;6245913;27;94248;-68
2023/04/29 10:58:05;;;;;;;15.77;7.55;;;23.80;82.70;;;;;;6246248;27;95388;-68
2023/04/29 11:01:10;;;;;;;12.68;6.90;;;23.80;82.70;;;;;;6246030;27;94266;-68
2023/04/29 11:04:12;;;;;;;14.43;6.97;;;23.80;82.70;;;;;;6237122;27;94114;-68
2023/04/29 11:07:29;;;;;;;11.75;6.25;;;23.80;82.70;;;;;;6237945;27;94143;-69
2023/04/29 11:10:37;;;;;;;16.92;7.20;;;23.80;82.40;;;;;;6239253;27;93513;-69
2023/04/29 11:13:40;;;;;;;12.27;6.13;;;23.80;82.50;;;;;;6243931;28;93975;-69
2023/04/29 11:16:51;;;;;;;17.00;7.40;;;23.80;82.30;;;;;;6237666;27;94333;-68
2023/04/29 11:19:54;;;;;;;14.80;6.90;;;23.80;83.30;;;;;;6239760;27;95041;-69
2023/04/29 11:22:58;;;;;;;11.85;6.55;;;23.90;83.40;;;;;;6242163;27;94045;-68
2023/04/29 11:26:01;;;;;;;18.25;6.70;;;23.90;82.70;;;;;;6242398;27;94542;-69
2023/04/29 11:29:07;;;;;;;12.82;6.32;;;23.90;82.50;;;;;;6239192;27;96332;-68
2023/04/29 11:32:09;;;;;;;16.30;6.53;;;23.90;82.70;;;;;;6241746;27;94137;-69
2023/04/29 11:35:13;;;;;;;13.68;6.13;;;23.90;82.40;;;;;;6238391;27;94169;-69
2023/04/29 11:38:16;;;;;;;19.30;7.90;;;23.90;82.00;;;;;;6241491;27;94041;-68
2023/04/29 11:41:19;;;;;;;18.23;7.60;;;23.90;82.00;;;;;;6236876;27;93696;-69
2023/04/29 11:44:22;;;;;;;19.65;8.43;;;23.90;82.20;;;;;;6231748;27;92933;-68
2023/04/29 11:47:27;;;;;;;14.80;7.53;;;23.80;82.50;;;;;;6233163;27;94031;-68
2023/04/29 11:50:31;;;;;;;13.25;6.30;;;23.90;82.80;;;;;;6234884;27;95411;-68
2023/04/29 11:53:35;;;;;;;17.33;6.65;;;23.90;82.50;;;;;;6237677;27;94127;-69
2023/04/29 11:56:38;;;;;;;12.88;6.63;;;23.90;82.30;;;;;;6231654;27;94632;-68
2023/04/29 11:59:42;;;;;;;14.73;6.70;;;23.90;82.30;;;;;;6241140;27;94164;-68
2023/04/29 12:02:45;;;;;;;14.63;6.50;;;23.90;83.40;;;;;;6243939;27;94264;-69
2023/04/29 12:05:48;;;;;;;14.52;6.38;;;23.90;83.00;;;;;;6243061;27;94025;-69
2023/04/29 12:08:51;;;;;;;12.00;5.75;;;23.90;82.70;;;;;;6235988;27;94280;-68
2023/04/29 12:11:54;;;;;;;11.27;5.85;;;23.90;82.40;;;;;;6240672;27;93321;-69
2023/04/29 12:14:56;;;;;;;15.40;6.60;;;23.90;83.20;;;;;;6236576;27;94389;-68
2023/04/29 12:17:58;;;;;;;13.43;6.03;;;24.00;91.90;;;;;;6243818;27;94105;-68
2023/04/29 12:21:00;;;;;;;13.10;4.78;;;24.10;89.30;;;;;;6248833;27;94240;-69
2023/04/29 12:24:04;;;;;;;14.13;5.05;;;24.10;85.90;;;;;;6246344;27;93704;-68
2023/04/29 12:27:09;;;;;;;11.95;5.45;;;24.20;85.00;;;;;;6244345;27;94053;-68
2023/04/29 12:30:12;;;;;;;12.18;5.07;;;24.20;84.00;;;;;;6240175;27;94221;-68
2023/04/29 12:33:20;;;;;;;13.15;5.30;;;24.20;83.70;;;;;;6246945;27;94093;-68
2023/04/29 12:36:23;;;;;;;12.55;4.93;;;24.20;83.50;;;;;;6248750;27;94120;-69
2023/04/29 12:39:27;;;;;;;10.98;4.95;;;24.20;83.30;;;;;;6243836;27;94204;-70
2023/04/29 12:42:33;;;;;;;13.48;5.05;;;24.20;83.30;;;;;;6245844;27;93357;-68
2023/04/29 12:45:35;;;;;;;8.70;4.90;;;24.20;83.30;;;;;;6246486;27;94320;-69
2023/04/29 12:48:39;;;;;;;8.82;5.00;;;24.10;83.20;;;;;;6234868;27;94010;-69
2023/04/29 12:51:41;;;;;;;10.40;4.72;;;24.10;83.30;;;;;;6246469;27;95354;-69
2023/04/29 12:54:45;;;;;;;9.73;4.50;;;24.10;83.30;;;;;;6243983;27;94032;-69
2023/04/29 12:57:47;;;;;;;10.70;4.72;;;24.10;83.70;;;;;;6249163;27;94400;-69
2023/04/29 13:00:49;;;;;;;9.90;4.60;;;24.10;83.50;;;;;;6249775;27;93427;-68
2023/04/29 13:03:51;;;;;;;10.60;4.63;;;24.10;83.20;;;;;;6247675;28;93039;-69
2023/04/29 13:06:59;;;;;;;9.93;4.70;;;24.10;83.70;;;;;;6251511;28;94033;-68
2023/04/29 13:10:05;;;;;;;10.45;4.20;;;24.10;83.70;;;;;;6251605;28;94023;-68
2023/04/29 13:13:08;;;;;;;8.57;4.13;;;24.10;83.80;;;;;;6252290;28;93394;-69
2023/04/29 13:16:10;;;;;;;9.93;3.95;;;24.00;83.80;;;;;;6248912;28;94202;-69
2023/04/29 13:19:13;;;;;;;9.48;4.78;;;24.10;83.70;;;;;;6249979;28;94189;-69
2023/04/29 13:22:15;;;;;;;7.65;4.20;;;24.00;83.10;;;;;;6245097;28;95033;-69
2023/04/29 13:25:19;;;;;;;8.68;3.83;;;24.00;83.00;;;;;;6241062;28;94112;-69
2023/04/29 13:28:22;;;;;;;6.22;4.20;;;24.00;83.00;;;;;;6245740;28;93083;-69
2023/04/29 13:31:24;;;;;;;8.45;4.30;;;24.00;82.90;;;;;;6243615;28;94242;-69
2023/04/29 13:34:26;;;;;;;6.55;3.58;;;24.00;82.70;;;;;;6236106;28;94238;-69
2023/04/29 13:37:28;;;;;;;7.68;3.97;;;24.00;82.70;;;;;;6251243;28;94319;-69
2023/04/29 13:40:31;;;;;;;7.85;4.22;;;24.00;83.30;;;;;;6247138;28;94377;-69
2023/04/29 13:43:33;;;;;;;9.05;4.05;;;24.00;82.30;;;;;;6253873;28;93438;-69
2023/04/29 13:46:36;;;;;;;7.93;4.07;;;24.00;82.10;;;;;;6251914;28;94149;-70
2023/04/29 13:49:39;;;;;;;7.68;3.72;;;24.00;82.20;;;;;;6250841;28;94066;-69
2023/04/29 13:52:41;;;;;;;6.10;3.70;;;24.00;82.00;;;;;;6250291;28;95603;-69
2023/04/29 13:55:44;;;;;;;6.07;3.65;;;24.00;81.90;;;;;;6250654;28;94256;-69
2023/04/29 13:58:48;;;;;;;6.95;3.42;;;24.00;81.80;;;;;;6249845;28;94404;-69
2023/04/29 14:01:51;;;;;;;7.10;3.60;;;24.00;81.70;;;;;;6255209;28;93981;-69
2023/04/29 14:04:53;;;;;;;7.60;3.67;;;24.00;81.70;;;;;;6244491;27;94065;-70
2023/04/29 14:07:55;;;;;;;7.07;3.47;;;24.00;81.80;;;;;;6244383;28;94112;-69
2023/04/29 14:10:58;;;;;;;6.43;3.90;;;24.00;81.70;;;;;;6252844;28;92693;-69
2023/04/29 14:14:00;;;;;;;4.88;3.55;;;24.00;81.60;;;;;;6251484;28;93519;-70
2023/04/29 14:17:02;;;;;;;5.65;3.50;;;24.00;81.60;;;;;;6249495;28;94318;-69
2023/04/29 14:20:05;;;;;;;5.68;3.42;;;24.00;81.50;;;;;;6246834;28;94272;-70
2023/04/29 14:23:07;;;;;;;5.72;3.40;;;24.00;81.50;;;;;;6254253;28;95029;-69
2023/04/29 14:26:11;;;;;;;6.25;3.65;;;24.00;81.30;;;;;;6245256;28;94195;-70
2023/04/29 14:29:13;;;;;;;6.28;3.30;;;24.10;81.30;;;;;;6249668;28;93883;-71
2023/04/29 14:32:15;;;;;;;4.97;3.10;;;24.00;81.30;;;;;;6255351;28;94316;-70
2023/04/29 14:35:17;;;;;;;6.85;3.40;;;24.10;81.30;;;;;;6251796;28;93001;-70
2023/04/29 14:38:19;;;;;;;7.10;3.22;;;24.00;81.10;;;;;;6242059;28;94132;-69
2023/04/29 14:41:22;;;;;;;4.82;3.15;;;24.00;81.10;;;;;;6252780;28;94114;-69
2023/04/29 14:44:24;;;;;;;5.10;3.38;;;24.00;81.10;;;;;;6253192;27;92331;-70
2023/04/29 14:47:27;;;;;;;5.63;3.42;;;24.00;81.10;;;;;;6252395;28;94049;-69
2023/04/29 14:50:29;;;;;;;5.55;3.28;;;24.00;81.10;;;;;;6240789;28;94210;-69
2023/04/29 14:53:31;;;;;;;5.60;3.67;;;24.00;81.00;;;;;;6242684;28;95564;-69
2023/04/29 14:56:35;;;;;;;5.00;3.08;;;24.00;81.00;;;;;;6254363;28;94311;-70
2023/04/29 14:59:37;;;;;;;4.03;2.90;;;24.00;80.90;;;;;;6240227;28;94356;-69
2023/04/29 15:02:39;;;;;;;4.85;3.13;;;24.00;80.90;;;;;;6244696;28;94181;-70
2023/04/29 15:05:41;;;;;;;3.75;2.70;;;24.00;80.90;;;;;;6238540;28;94039;-69
2023/04/29 15:08:43;;;;;;;5.00;2.90;;;24.00;81.80;;;;;;6254126;28;94086;-69
2023/04/29 15:11:47;;;;;;;4.40;3.17;;;23.90;80.80;;;;;;6246817;28;94149;-69
2023/04/29 15:14:49;;;;;;;4.70;3.20;;;23.90;80.80;;;;;;6247856;27;92632;-68
2023/04/29 15:17:51;;;;;;;4.93;2.92;;;24.00;80.80;;;;;;6254159;28;93947;-70
2023/04/29 15:20:53;;;;;;;4.50;2.95;;;24.00;80.80;;;;;;6237133;28;94060;-70
2023/04/29 15:23:55;;;;;;;4.00;2.70;;;23.90;80.50;;;;;;6250616;28;95098;-69
2023/04/29 15:26:58;;;;;;;4.45;2.88;;;23.90;80.50;;;;;;6247568;28;94227;-69
2023/04/29 15:30:02;;;;;;;4.88;3.20;;;23.90;80.50;;;;;;6247258;27;94064;-69
2023/04/29 15:33:04;;;;;;;3.72;2.83;;;23.90;80.60;;;;;;6246140;28;94385;-69
2023/04/29 15:36:07;;;;;;;4.63;3.13;;;24.00;80.60;;;;;;6240739;27;94172;-69
2023/04/29 15:39:11;;;;;;;4.68;2.92;;;23.90;80.60;;;;;;6245303;27;94613;-69
2023/04/29 15:42:15;;;;;;;4.50;2.90;;;23.90;80.60;;;;;;6244848;27;93419;-69
2023/04/29 15:45:17;;;;;;;4.03;2.90;;;23.90;80.50;;;;;;6244719;28;91951;-68
2023/04/29 15:48:20;;;;;;;4.70;3.03;;;23.90;80.30;;;;;;6244844;28;94047;-68